createdAt,value
2022-10-23T00:01:29.221Z,2.20
2022-10-23T00:03:58.665Z,1.60
2022-10-23T00:06:31.563Z,2.20
2022-10-23T00:08:58.732Z,1.88
2022-10-23T00:11:29.034Z,1.92
2022-10-23T00:13:58.514Z,1.77
2022-10-23T00:16:27.256Z,1.80
2022-10-23T00:18:54.655Z,1.95
2022-10-23T00:21:22.192Z,2.05
2022-10-23T00:23:54.017Z,1.70
2022-10-23T00:26:23.352Z,1.50
2022-10-23T00:28:54.642Z,1.63
2022-10-23T00:31:22.751Z,2.08
2022-10-23T00:33:50.517Z,1.70
2022-10-23T00:36:18.729Z,1.95
2022-10-23T00:38:46.880Z,2.03
2022-10-23T00:41:16.799Z,2.38
2022-10-23T00:43:58.793Z,2.30
2022-10-23T00:46:26.586Z,2.30
2022-10-23T00:48:53.745Z,2.80
2022-10-23T00:51:21.488Z,2.97
2022-10-23T00:54:01.099Z,3.10
2022-10-23T00:56:39.464Z,2.80
2022-10-23T00:59:06.985Z,2.63
2022-10-23T01:01:34.340Z,2.53
2022-10-23T01:04:02.680Z,2.53
2022-10-23T01:06:38.234Z,2.13
2022-10-23T01:09:25.988Z,2.60
2022-10-23T01:11:58.237Z,3.00
2022-10-23T01:14:41.356Z,2.45
2022-10-23T01:17:27.390Z,2.05
2022-10-23T01:20:13.797Z,1.95
2022-10-23T01:22:44.412Z,2.10
2022-10-23T01:25:23.875Z,2.47
2022-10-23T01:27:55.660Z,1.98
2022-10-23T01:30:23.159Z,1.90
2022-10-23T01:32:50.578Z,2.00
2022-10-23T01:35:22.939Z,1.75
2022-10-23T01:37:54.858Z,1.90
2022-10-23T01:40:25.187Z,2.35
2022-10-23T01:42:55.195Z,1.77
2022-10-23T01:45:25.659Z,1.65
2022-10-23T01:47:54.043Z,1.35
2022-10-23T01:50:22.684Z,1.63
2022-10-23T01:52:50.913Z,1.50
2022-10-23T01:55:18.401Z,2.00
2022-10-23T01:57:46.082Z,2.00
2022-10-23T02:00:16.202Z,2.10
2022-10-23T02:02:45.087Z,1.80
2022-10-23T02:05:15.234Z,1.60
2022-10-23T02:07:44.937Z,1.98
2022-10-23T02:10:13.357Z,1.70
2022-10-23T02:12:50.703Z,1.98
2022-10-23T02:15:37.888Z,1.88
2022-10-23T02:18:18.620Z,1.67
2022-10-23T02:20:53.892Z,1.83
2022-10-23T02:23:29.740Z,1.90
2022-10-23T02:26:00.037Z,1.90
2022-10-23T02:28:31.160Z,1.90
2022-10-23T02:30:59.887Z,1.98
2022-10-23T02:33:28.256Z,1.88
2022-10-23T02:35:56.559Z,1.85
2022-10-23T02:38:37.635Z,1.80
2022-10-23T02:41:20.726Z,2.42
2022-10-23T02:44:06.721Z,2.00
2022-10-23T02:46:51.021Z,2.00
2022-10-23T02:49:37.081Z,1.58
2022-10-23T02:52:19.005Z,1.88
2022-10-23T02:55:08.398Z,2.08
2022-10-23T02:57:39.269Z,1.80
2022-10-23T03:00:12.210Z,1.77
2022-10-23T03:02:46.761Z,1.88
2022-10-23T03:05:22.283Z,2.10
2022-10-23T03:07:50.361Z,1.33
2022-10-23T03:10:21.284Z,1.77
2022-10-23T03:12:49.014Z,1.90
2022-10-23T03:15:19.546Z,1.55
2022-10-23T03:17:46.778Z,1.83
2022-10-23T03:20:14.628Z,1.80
2022-10-23T03:22:42.224Z,1.20
2022-10-23T03:25:10.336Z,2.15
2022-10-23T03:27:37.668Z,1.83
2022-10-23T03:30:05.737Z,2.00
2022-10-23T03:32:33.729Z,2.20
2022-10-23T03:35:03.617Z,1.80
2022-10-23T03:37:31.465Z,1.85
2022-10-23T03:40:00.291Z,1.80
2022-10-23T03:42:27.539Z,1.17
2022-10-23T03:44:55.765Z,2.13
2022-10-23T03:47:23.124Z,1.90
2022-10-23T03:49:50.839Z,1.80
2022-10-23T03:52:20.190Z,2.20
2022-10-23T03:54:47.251Z,1.75
2022-10-23T03:57:14.743Z,2.10
2022-10-23T03:59:41.792Z,1.88
2022-10-23T04:02:09.268Z,1.63
2022-10-23T04:04:38.598Z,1.38
2022-10-23T04:07:06.458Z,2.03
2022-10-23T04:09:34.705Z,1.58
2022-10-23T04:12:03.300Z,1.95
2022-10-23T04:14:31.617Z,2.35
2022-10-23T04:16:59.512Z,1.98
2022-10-23T04:19:27.436Z,2.45
2022-10-23T04:21:54.962Z,1.50
2022-10-23T04:24:22.814Z,1.52
2022-10-23T04:26:57.146Z,1.60
2022-10-23T04:29:24.726Z,0.70
2022-10-23T04:31:52.094Z,1.98
2022-10-23T04:34:19.261Z,0.80
2022-10-23T04:36:46.691Z,0.98
2022-10-23T04:39:14.671Z,1.92
2022-10-23T04:41:54.857Z,1.67
2022-10-23T04:44:22.345Z,1.83
2022-10-23T04:47:03.668Z,1.70
2022-10-23T04:49:31.433Z,2.15
2022-10-23T04:52:13.423Z,1.58
2022-10-23T04:54:40.658Z,1.67
2022-10-23T04:57:10.219Z,1.52
2022-10-23T04:59:38.787Z,1.70
2022-10-23T05:02:09.620Z,0.98
2022-10-23T05:04:40.992Z,1.25
2022-10-23T05:07:16.267Z,1.48
2022-10-23T05:09:57.801Z,1.70
2022-10-23T05:12:26.593Z,1.67
2022-10-23T05:15:07.174Z,1.25
2022-10-23T05:17:38.995Z,1.38
2022-10-23T05:20:12.869Z,1.50
2022-10-23T05:22:41.431Z,1.25
2022-10-23T05:25:13.967Z,1.15
2022-10-23T05:27:41.908Z,1.70
2022-10-23T05:30:10.246Z,1.27
2022-10-23T05:32:38.383Z,1.27
2022-10-23T05:35:08.086Z,1.80
2022-10-23T05:37:38.412Z,1.63
2022-10-23T05:40:07.670Z,1.20
2022-10-23T05:42:38.249Z,1.67
2022-10-23T05:45:09.180Z,1.27
2022-10-23T05:47:39.599Z,1.13
2022-10-23T05:50:07.623Z,1.08
2022-10-23T05:52:35.365Z,1.02
2022-10-23T05:55:02.424Z,0.82
2022-10-23T05:57:32.468Z,0.90
2022-10-23T06:00:00.409Z,1.48
2022-10-23T06:02:28.583Z,0.80
2022-10-23T06:04:56.009Z,1.02
2022-10-23T06:07:30.227Z,0.80
2022-10-23T06:10:00.323Z,1.33
2022-10-23T06:12:27.273Z,0.93
2022-10-23T06:14:54.542Z,0.98
2022-10-23T06:17:22.009Z,0.60
2022-10-23T06:19:49.631Z,1.02
2022-10-23T06:22:16.826Z,1.10
2022-10-23T06:24:44.562Z,1.13
2022-10-23T06:27:15.090Z,1.20
2022-10-23T06:29:42.948Z,1.20
2022-10-23T06:32:12.982Z,1.60
2022-10-23T06:34:40.168Z,0.98
2022-10-23T06:37:11.929Z,1.60
2022-10-23T06:39:40.577Z,1.33
2022-10-23T06:42:15.919Z,1.30
2022-10-23T06:44:43.100Z,1.20
2022-10-23T06:47:14.642Z,1.10
2022-10-23T06:49:42.452Z,1.05
2022-10-23T06:52:18.483Z,1.30
2022-10-23T06:54:56.427Z,1.55
2022-10-23T06:57:23.969Z,1.40
2022-10-23T06:59:51.403Z,1.30
2022-10-23T07:02:18.882Z,1.25
2022-10-23T07:04:46.307Z,1.23
2022-10-23T07:07:14.372Z,1.20
2022-10-23T07:09:42.092Z,1.23
2022-10-23T07:12:09.849Z,1.10
2022-10-23T07:14:37.908Z,1.17
2022-10-23T07:17:05.785Z,1.13
2022-10-23T07:19:33.559Z,1.38
2022-10-23T07:22:01.592Z,1.33
2022-10-23T07:24:37.022Z,1.20
2022-10-23T07:27:04.795Z,1.48
2022-10-23T07:29:32.587Z,1.50
2022-10-23T07:32:05.640Z,1.25
2022-10-23T07:34:33.487Z,1.48
2022-10-23T07:37:01.281Z,1.40
2022-10-23T07:39:29.537Z,1.10
2022-10-23T07:41:56.695Z,1.30
2022-10-23T07:44:26.979Z,1.35
2022-10-23T07:46:55.116Z,1.00
2022-10-23T07:49:22.578Z,1.00
2022-10-23T07:51:51.558Z,0.73
2022-10-23T07:54:18.974Z,1.17
2022-10-23T07:56:48.154Z,0.60
2022-10-23T07:59:15.801Z,0.57
2022-10-23T08:01:43.502Z,1.00
2022-10-23T08:04:11.273Z,0.63
2022-10-23T08:06:41.867Z,1.13
2022-10-23T08:09:09.529Z,0.43
2022-10-23T08:11:37.296Z,1.27
2022-10-23T08:14:08.300Z,1.58
2022-10-23T08:16:40.395Z,1.25
2022-10-23T08:19:08.559Z,0.95
2022-10-23T08:21:38.065Z,0.93
2022-10-23T08:24:06.226Z,1.17
2022-10-23T08:26:36.021Z,1.50
2022-10-23T08:29:03.777Z,1.45
2022-10-23T08:31:31.410Z,1.25
2022-10-23T08:33:58.674Z,1.33
2022-10-23T08:36:27.681Z,1.40
2022-10-23T08:38:56.050Z,1.83
2022-10-23T08:41:25.909Z,1.73
2022-10-23T08:43:56.847Z,0.50
2022-10-23T08:46:27.184Z,2.00
2022-10-23T08:48:59.912Z,1.40
2022-10-23T08:51:40.650Z,1.50
2022-10-23T08:54:14.502Z,1.58
2022-10-23T08:56:53.358Z,1.20
2022-10-23T08:59:43.093Z,1.80
2022-10-23T09:02:10.445Z,1.33
2022-10-23T09:04:38.160Z,1.90
2022-10-23T09:09:54.094Z,0.75
2022-10-23T09:12:22.337Z,0.93
2022-10-23T09:14:55.137Z,1.30
2022-10-23T09:17:29.521Z,1.40
2022-10-23T09:20:06.537Z,1.00
2022-10-23T09:22:34.278Z,1.33
2022-10-23T09:25:01.531Z,1.10
2022-10-23T09:27:28.961Z,1.30
2022-10-23T09:29:56.497Z,2.10
2022-10-23T09:32:34.569Z,0.70
2022-10-23T09:35:02.174Z,1.48
2022-10-23T09:37:32.837Z,1.17
2022-10-23T09:40:02.915Z,2.03
2022-10-23T09:42:30.704Z,0.85
2022-10-23T09:44:58.279Z,2.72
2022-10-23T09:47:25.898Z,1.40
2022-10-23T09:49:54.554Z,1.52
2022-10-23T09:52:29.114Z,0.82
2022-10-23T09:55:00.303Z,1.08
2022-10-23T09:57:44.095Z,1.17
2022-10-23T10:00:14.451Z,1.35
2022-10-23T10:02:43.330Z,1.80
2022-10-23T10:05:25.554Z,1.80
2022-10-23T10:08:01.557Z,1.25
2022-10-23T10:10:35.400Z,1.30
2022-10-23T10:13:24.582Z,1.45
2022-10-23T10:16:02.754Z,0.95
2022-10-23T10:18:40.796Z,2.08
2022-10-23T10:21:21.256Z,1.42
2022-10-23T10:24:14.477Z,1.10
2022-10-23T10:27:21.876Z,1.10
2022-10-23T10:29:59.558Z,1.85
2022-10-23T10:32:54.614Z,0.80
2022-10-23T10:36:11.627Z,1.13
2022-10-23T10:41:36.003Z,1.10
2022-10-23T10:44:06.612Z,1.50
2022-10-23T10:46:53.742Z,1.70
2022-10-23T10:49:47.883Z,1.30
2022-10-23T10:52:50.059Z,1.08
2022-10-23T10:55:21.090Z,1.73
2022-10-23T10:57:59.248Z,1.23
2022-10-23T11:00:33.217Z,1.33
2022-10-23T11:03:22.901Z,1.23
2022-10-23T11:05:57.528Z,1.55
2022-10-23T11:08:57.581Z,1.50
2022-10-23T11:12:03.454Z,1.45
2022-10-23T11:14:45.656Z,1.63
2022-10-23T11:17:18.336Z,1.52
2022-10-23T11:19:47.396Z,1.70
2022-10-23T11:22:47.050Z,1.33
2022-10-23T11:25:27.419Z,1.05
2022-10-23T11:28:01.704Z,0.90
2022-10-23T11:30:31.366Z,1.50
2022-10-23T11:33:01.911Z,1.05
2022-10-23T11:35:51.271Z,1.35
2022-10-23T11:38:33.731Z,1.02
2022-10-23T11:43:33.976Z,1.40
2022-10-23T11:46:23.110Z,1.42
2022-10-23T11:48:54.187Z,1.35
2022-10-23T11:51:27.204Z,1.17
2022-10-23T11:54:04.850Z,1.52
2022-10-23T11:56:34.149Z,1.48
2022-10-23T11:59:21.634Z,0.60
2022-10-23T12:01:52.036Z,1.50
2022-10-23T12:04:23.023Z,1.23
2022-10-23T12:06:55.538Z,1.40
2022-10-23T12:09:22.835Z,1.92
2022-10-23T12:12:10.815Z,1.50
2022-10-23T12:14:40.528Z,1.08
2022-10-23T12:17:23.071Z,1.60
2022-10-23T12:19:55.663Z,1.55
2022-10-23T12:22:26.061Z,1.83
2022-10-23T12:25:12.302Z,1.75
2022-10-23T12:28:09.541Z,2.08
2022-10-23T12:33:40.412Z,1.48
2022-10-23T12:36:27.708Z,1.25
2022-10-23T12:38:59.308Z,1.98
2022-10-23T12:41:32.156Z,1.85
2022-10-23T12:44:06.111Z,1.40
2022-10-23T12:46:46.770Z,1.85
2022-10-23T12:49:25.143Z,1.65
2022-10-23T12:52:02.096Z,1.77
2022-10-23T12:54:33.211Z,1.27
2022-10-23T12:57:10.574Z,1.98
2022-10-23T12:59:38.637Z,1.25
2022-10-23T13:02:23.112Z,1.05
2022-10-23T13:04:51.841Z,1.60
2022-10-23T13:07:25.230Z,1.50
2022-10-23T13:09:55.037Z,1.40
2022-10-23T13:12:28.538Z,1.50
2022-10-23T13:14:59.139Z,1.50
2022-10-23T13:17:37.162Z,1.35
2022-10-23T13:20:10.302Z,1.17
2022-10-23T13:22:37.173Z,1.77
2022-10-23T13:25:23.488Z,1.10
2022-10-23T13:27:50.826Z,1.38
2022-10-23T13:30:50.196Z,1.60
2022-10-23T13:33:19.835Z,0.98
2022-10-23T13:36:13.736Z,1.85
2022-10-23T13:38:42.361Z,1.30
2022-10-23T13:41:12.618Z,1.20
2022-10-23T13:43:39.961Z,0.75
2022-10-23T13:46:13.740Z,1.25
2022-10-23T13:48:40.670Z,1.45
2022-10-23T13:51:15.465Z,1.20
2022-10-23T13:53:42.736Z,1.67
2022-10-23T13:56:15.135Z,2.03
2022-10-23T13:58:42.527Z,1.48
2022-10-23T14:01:21.070Z,1.23
2022-10-23T14:03:48.343Z,1.70
2022-10-23T14:06:16.020Z,1.38
2022-10-23T14:08:42.836Z,1.38
2022-10-23T14:13:45.668Z,1.42
2022-10-23T14:16:19.293Z,1.70
2022-10-23T14:18:55.291Z,1.58
2022-10-23T14:24:02.372Z,1.40
2022-10-23T14:26:33.861Z,1.35
2022-10-23T14:29:09.752Z,1.20
2022-10-23T14:31:47.749Z,1.50
2022-10-23T14:34:22.024Z,1.20
2022-10-23T14:36:56.871Z,1.15
2022-10-23T14:39:38.726Z,1.13
2022-10-23T14:42:06.202Z,1.73
2022-10-23T14:47:09.082Z,1.00
2022-10-23T14:49:37.037Z,1.15
2022-10-23T14:52:19.483Z,1.15
2022-10-23T14:54:49.516Z,1.13
2022-10-23T14:57:23.285Z,1.40
2022-10-23T14:59:54.820Z,1.05
2022-10-23T15:02:23.687Z,0.75
2022-10-23T15:04:50.812Z,1.00
2022-10-23T15:07:18.424Z,0.80
2022-10-23T15:09:46.648Z,0.90
2022-10-23T15:12:20.244Z,0.77
2022-10-23T15:14:50.721Z,0.90
2022-10-23T15:17:17.993Z,0.82
2022-10-23T15:19:45.184Z,1.00
2022-10-23T15:22:18.607Z,0.98
2022-10-23T15:24:46.850Z,1.08
2022-10-23T15:27:14.947Z,1.23
2022-10-23T15:29:45.638Z,0.95
2022-10-23T15:32:17.021Z,0.98
2022-10-23T15:34:44.771Z,0.73
2022-10-23T15:37:14.807Z,1.10
2022-10-23T15:39:43.971Z,1.15
2022-10-23T15:42:18.069Z,0.70
2022-10-23T15:44:45.079Z,1.05
2022-10-23T15:47:12.099Z,1.35
2022-10-23T15:49:41.243Z,0.90
2022-10-23T15:52:11.253Z,1.00
2022-10-23T15:54:38.640Z,1.00
2022-10-23T15:57:07.596Z,0.88
2022-10-23T15:59:38.190Z,0.95
2022-10-23T16:02:08.375Z,0.88
2022-10-23T16:04:35.516Z,1.10
2022-10-23T16:07:03.888Z,1.17
2022-10-23T16:09:33.329Z,1.00
2022-10-23T16:12:18.480Z,0.98
2022-10-23T16:14:46.433Z,1.10
2022-10-23T16:19:56.444Z,1.17
2022-10-23T16:22:23.129Z,1.00
2022-10-23T16:24:50.079Z,1.02
2022-10-23T16:27:17.226Z,1.10
2022-10-23T16:29:44.506Z,0.80
2022-10-23T16:32:11.823Z,1.48
2022-10-23T16:34:40.148Z,1.10
2022-10-23T16:37:07.120Z,1.35
2022-10-23T16:39:33.955Z,1.25
2022-10-23T16:42:00.740Z,1.13
2022-10-23T16:44:27.813Z,1.05
2022-10-23T16:46:55.305Z,0.93
2022-10-23T16:49:22.720Z,1.15
2022-10-23T16:51:49.356Z,0.80
2022-10-23T16:54:16.228Z,1.23
2022-10-23T16:56:44.983Z,1.20
2022-10-23T16:59:11.684Z,1.10
2022-10-23T17:01:38.796Z,1.10
2022-10-23T17:04:09.776Z,1.17
2022-10-23T17:06:36.766Z,1.20
2022-10-23T17:09:04.501Z,1.25
2022-10-23T17:11:33.386Z,2.45
2022-10-23T17:14:02.454Z,1.15
2022-10-23T17:16:47.826Z,0.98
2022-10-23T17:19:39.688Z,1.20
2022-10-23T17:22:09.226Z,0.70
2022-10-23T17:24:39.546Z,0.80
2022-10-23T17:27:06.619Z,1.08
2022-10-23T17:29:36.709Z,0.65
2022-10-23T17:34:30.576Z,1.02
2022-10-23T17:36:57.498Z,0.75
2022-10-23T17:39:29.187Z,0.77
2022-10-23T17:41:56.507Z,0.95
2022-10-23T17:44:24.256Z,0.38
2022-10-23T17:46:55.243Z,0.60
2022-10-23T17:49:22.707Z,0.60
2022-10-23T17:52:00.195Z,0.75
2022-10-23T17:54:27.415Z,0.70
2022-10-23T17:56:54.192Z,0.60
2022-10-23T17:59:21.211Z,0.82
2022-10-23T18:01:48.928Z,0.80
2022-10-23T18:04:17.407Z,0.60
2022-10-23T18:06:49.141Z,0.52
2022-10-23T18:09:16.402Z,0.75
2022-10-23T18:11:45.610Z,0.60
2022-10-23T18:14:14.860Z,0.70
2022-10-23T18:16:41.929Z,0.65
2022-10-23T18:19:09.032Z,0.50
2022-10-23T18:21:36.634Z,0.68
2022-10-23T18:24:04.010Z,0.47
2022-10-23T18:26:31.428Z,0.68
2022-10-23T18:28:59.063Z,0.70
2022-10-23T18:31:27.209Z,0.50
2022-10-23T18:33:58.151Z,0.68
2022-10-23T18:36:26.904Z,0.40
2022-10-23T18:38:56.697Z,0.70
2022-10-23T18:41:23.949Z,0.80
2022-10-23T18:43:51.315Z,0.70
2022-10-23T18:46:18.068Z,0.80
2022-10-23T18:48:45.383Z,0.60
2022-10-23T18:51:16.708Z,0.60
2022-10-23T18:53:46.831Z,0.60
2022-10-23T18:56:21.888Z,0.80
2022-10-23T18:58:49.687Z,0.50
2022-10-23T19:01:16.864Z,0.63
2022-10-23T19:03:44.794Z,0.65
2022-10-23T19:06:15.304Z,0.60
2022-10-23T19:08:43.862Z,0.43
2022-10-23T19:11:12.396Z,0.77
2022-10-23T19:13:40.401Z,0.93
2022-10-23T19:16:09.877Z,0.93
2022-10-23T19:18:38.478Z,0.68
2022-10-23T19:21:06.428Z,0.60
2022-10-23T19:23:36.429Z,0.75
2022-10-23T19:26:09.999Z,0.63
2022-10-23T19:28:38.290Z,0.35
2022-10-23T19:31:06.434Z,0.45
2022-10-23T19:33:34.535Z,0.70
2022-10-23T19:36:05.321Z,0.45
2022-10-23T19:38:35.228Z,0.57
2022-10-23T19:41:04.361Z,0.57
2022-10-23T19:43:31.696Z,0.50
2022-10-23T19:46:07.763Z,0.65
2022-10-23T19:48:39.914Z,0.90
2022-10-23T19:51:08.117Z,0.32
2022-10-23T19:53:36.577Z,0.47
2022-10-23T19:56:08.042Z,0.32
2022-10-23T19:58:35.519Z,0.60
2022-10-23T20:01:09.912Z,0.60
2022-10-23T20:03:37.505Z,0.70
2022-10-23T20:06:05.150Z,0.47
2022-10-23T20:08:35.002Z,0.68
2022-10-23T20:11:04.337Z,0.65
2022-10-23T20:13:31.108Z,0.50
2022-10-23T20:15:58.409Z,0.63
2022-10-23T20:18:26.189Z,0.15
2022-10-23T20:20:53.822Z,0.60
2022-10-23T20:23:20.773Z,0.43
2022-10-23T20:25:48.127Z,1.02
2022-10-23T20:28:15.464Z,0.60
2022-10-23T20:30:46.287Z,0.77
2022-10-23T20:33:13.648Z,0.45
2022-10-23T20:35:42.188Z,0.57
2022-10-23T20:38:09.546Z,0.60
2022-10-23T20:40:36.596Z,0.57
2022-10-23T20:43:03.881Z,0.50
2022-10-23T20:45:30.856Z,0.80
2022-10-23T20:47:58.100Z,0.40
2022-10-23T20:50:25.323Z,0.80
2022-10-23T20:52:52.294Z,0.95
2022-10-23T20:55:21.862Z,0.90
2022-10-23T20:57:49.259Z,0.63
2022-10-23T21:00:16.346Z,0.70
2022-10-23T21:02:47.230Z,1.00
2022-10-23T21:05:17.234Z,0.73
2022-10-23T21:07:46.805Z,1.05
2022-10-23T21:10:14.189Z,0.88
2022-10-23T21:12:41.421Z,0.90
2022-10-23T21:15:11.272Z,0.98
2022-10-23T21:17:41.539Z,1.25
2022-10-23T21:20:08.834Z,0.85
2022-10-23T21:22:39.310Z,1.35
2022-10-23T21:25:06.766Z,0.60
2022-10-23T21:27:34.496Z,0.85
2022-10-23T21:30:01.297Z,1.30
2022-10-23T21:32:29.095Z,1.25
2022-10-23T21:34:57.438Z,1.17
2022-10-23T21:37:25.545Z,0.60
2022-10-23T21:39:52.252Z,1.10
2022-10-23T21:42:19.970Z,0.70
2022-10-23T21:44:46.815Z,0.57
2022-10-23T21:47:14.030Z,1.08
2022-10-23T21:49:40.789Z,1.30
2022-10-23T21:52:07.758Z,0.98
2022-10-23T21:54:34.570Z,0.85
2022-10-23T21:57:07.969Z,1.20
2022-10-23T21:59:36.089Z,0.85
2022-10-23T22:02:06.189Z,1.10
2022-10-23T22:04:33.542Z,1.38
2022-10-23T22:07:06.627Z,0.77
2022-10-23T22:09:34.423Z,1.42
2022-10-23T22:12:03.254Z,0.88
2022-10-23T22:14:30.560Z,1.00
2022-10-23T22:17:02.960Z,0.88
2022-10-23T22:19:30.270Z,1.20
2022-10-23T22:21:57.658Z,1.10
2022-10-23T22:24:25.314Z,0.80
2022-10-23T22:26:59.711Z,0.93
2022-10-23T22:29:28.038Z,1.40
2022-10-23T22:31:55.118Z,1.33
2022-10-23T22:34:48.410Z,0.93
2022-10-23T22:37:14.735Z,0.70
2022-10-23T22:39:45.195Z,0.90
2022-10-23T22:42:12.520Z,0.90
2022-10-23T22:44:40.054Z,0.82
2022-10-23T22:47:08.120Z,1.27
2022-10-23T22:49:41.519Z,1.02
2022-10-23T22:54:47.773Z,0.85
2022-10-23T22:57:15.321Z,0.80
2022-10-23T22:59:42.641Z,0.60
2022-10-23T23:02:13.314Z,0.80
2022-10-23T23:04:40.853Z,0.90
2022-10-23T23:07:11.392Z,0.60
2022-10-23T23:09:40.675Z,1.20
2022-10-23T23:12:09.393Z,0.80
2022-10-23T23:14:37.065Z,1.52
2022-10-23T23:17:07.408Z,1.13
2022-10-23T23:19:35.073Z,1.00
2022-10-23T23:22:05.327Z,1.27
2022-10-23T23:24:33.281Z,1.20
2022-10-23T23:27:00.311Z,1.27
2022-10-23T23:29:29.875Z,0.30
2022-10-23T23:31:57.913Z,1.25
2022-10-23T23:34:24.717Z,1.00
2022-10-23T23:36:52.394Z,0.85
2022-10-23T23:39:19.509Z,0.82
2022-10-23T23:41:47.194Z,0.77
2022-10-23T23:44:14.735Z,0.93
2022-10-23T23:46:45.248Z,1.00
2022-10-23T23:49:12.924Z,1.92
2022-10-23T23:54:12.854Z,0.60
2022-10-23T23:56:40.526Z,0.77
2022-10-23T23:59:07.831Z,1.35
